EDLV METAR and TAF | Updated Today

EDLV METAR

Weeze Airport

Observation time: 24 min. ago

EDLV 080650Z 19007KT CAVOK 06/03 Q0995

Need help? Read our tutorial on how to read METARs or read the parsed version below.

Weeze Airport (EDLV) METAR

  • Weather conditions on Wed, 08 Dec 2021 06:50:00 +0000 (24 min. ago):
  • Present conditions: Dry
  • Clouds: Clear skies
  • Visibility: Greater than 10 km
  • Wind: 190 degrees at 7 knots
  • Temperature: 6 celsius
  • Dew point: 3 celsius
  • Pressure: 995 millibars
  • Remarks: None


Useful to know...

EDLV TAF

Weeze Airport

TAF EDLV 080500Z 0806/0906 18010KT 9999 SCT030 BECMG 0814/0817 17005KT
Observation time: 2:14 hr. ago
Need help? Read our tutorial on how to read TAFs or read the parsed version below.

Parsed version of TAF for Weeze Airport (EDLV)

  • From 08 December at 06:00 UTC, to day 09 of the month at 06:00 UTC
  • Clouds: Scattered at 914 meters
  • Visibility: Greater than 10 km
  • Wind: 180 degrees at 10
  • Expected to arise soon, from 08 December at 14:00 UTC, to day 08 of the month at 17:00 UTC
  • Wind: 170 degrees at 5